createdAt,value
2017-12-16T00:04:18.187Z,37
2017-12-16T00:14:18.163Z,29
2017-12-16T00:24:18.267Z,30
2017-12-16T00:34:18.195Z,29
2017-12-16T00:44:18.626Z,26
2017-12-16T00:54:18.217Z,26
2017-12-16T01:04:18.366Z,28
2017-12-16T01:14:18.317Z,33
2017-12-16T01:24:18.381Z,35
2017-12-16T01:34:18.267Z,34
2017-12-16T01:44:30.771Z,30
2017-12-16T01:54:18.331Z,39
2017-12-16T02:04:18.293Z,33
2017-12-16T02:15:03.944Z,35
2017-12-16T02:24:18.285Z,32
2017-12-16T02:34:18.377Z,40
2017-12-16T02:44:18.414Z,36
2017-12-16T02:54:18.373Z,42
2017-12-16T03:04:18.402Z,40
2017-12-16T03:14:18.910Z,39
2017-12-16T03:24:18.369Z,42
2017-12-16T03:34:18.324Z,40
2017-12-16T03:44:18.386Z,41
2017-12-16T03:54:18.332Z,41
2017-12-16T04:04:18.378Z,45
2017-12-16T04:14:18.358Z,46
2017-12-16T04:24:18.437Z,45
2017-12-16T04:34:18.401Z,43
2017-12-16T04:44:18.484Z,41
2017-12-16T04:54:18.463Z,38
2017-12-16T05:04:18.368Z,32
2017-12-16T05:14:18.430Z,34
2017-12-16T05:24:18.385Z,38
2017-12-16T05:34:18.442Z,42
2017-12-16T05:44:18.402Z,41
2017-12-16T05:54:18.536Z,45
2017-12-16T06:04:18.470Z,45
2017-12-16T06:14:18.524Z,42
2017-12-16T06:24:18.456Z,40
2017-12-16T06:34:18.488Z,46
2017-12-16T06:44:18.482Z,44
2017-12-16T06:54:18.580Z,44
2017-12-16T07:04:18.550Z,45
2017-12-16T07:14:18.482Z,45
2017-12-16T07:24:18.552Z,45
2017-12-16T07:34:18.552Z,40
2017-12-16T07:44:18.580Z,50
2017-12-16T07:54:18.534Z,44
2017-12-16T08:04:18.635Z,41
2017-12-16T08:14:18.558Z,40
2017-12-16T08:24:18.502Z,36
2017-12-16T08:34:18.610Z,36
2017-12-16T08:44:18.581Z,34
2017-12-16T08:54:18.616Z,31
2017-12-16T09:04:18.610Z,24
2017-12-16T09:14:18.650Z,25
2017-12-16T09:24:18.597Z,24
2017-12-16T09:34:18.587Z,20
2017-12-16T09:44:18.741Z,18
2017-12-16T09:54:18.656Z,19
2017-12-16T10:04:18.752Z,13
2017-12-16T10:14:18.658Z,16
2017-12-16T10:24:18.786Z,11
2017-12-16T10:34:18.742Z,10
2017-12-16T10:44:18.759Z,10
2017-12-16T10:54:18.730Z,7
2017-12-16T11:04:18.781Z,10
2017-12-16T11:14:18.804Z,4
2017-12-16T11:24:18.673Z,6
2017-12-16T11:34:18.715Z,7
2017-12-16T11:44:18.664Z,7
2017-12-16T11:54:18.722Z,3
2017-12-16T12:04:18.741Z,5
2017-12-16T12:14:18.769Z,7
2017-12-16T12:24:18.737Z,7
2017-12-16T12:34:18.908Z,5
2017-12-16T12:44:18.863Z,7
2017-12-16T12:54:19.592Z,7
2017-12-16T13:04:19.832Z,3
2017-12-16T13:14:18.834Z,5
2017-12-16T13:24:18.871Z,12
2017-12-16T13:40:47.243Z,5
2017-12-16T13:44:18.777Z,8
2017-12-16T13:54:18.765Z,7
2017-12-16T14:04:18.804Z,6
2017-12-16T14:14:18.870Z,2
2017-12-16T14:24:18.884Z,3
2017-12-16T14:34:18.989Z,4
2017-12-16T14:44:18.983Z,4
2017-12-16T14:54:18.879Z,5
2017-12-16T15:04:18.876Z,5
2017-12-16T15:14:18.869Z,7
2017-12-16T15:24:19.201Z,10
2017-12-16T15:34:19.124Z,10
2017-12-16T15:44:18.837Z,4
2017-12-16T15:54:19.262Z,9
2017-12-16T16:04:18.978Z,3
2017-12-16T16:14:19.025Z,4
2017-12-16T16:24:19.079Z,6
2017-12-16T16:34:19.253Z,5
2017-12-16T16:44:19.585Z,10
2017-12-16T16:54:19.031Z,4
2017-12-16T17:04:19.301Z,5
2017-12-16T17:14:18.988Z,6
2017-12-16T17:24:19.007Z,5
2017-12-16T17:34:18.975Z,4
2017-12-16T17:44:18.927Z,5
2017-12-16T17:54:19.431Z,4
2017-12-16T18:04:19.233Z,2
2017-12-16T18:14:19.445Z,3
2017-12-16T18:24:18.969Z,3
2017-12-16T18:34:19.072Z,12
2017-12-16T18:44:18.986Z,7
2017-12-16T18:54:19.186Z,6
2017-12-16T19:04:19.068Z,9
2017-12-16T19:14:19.420Z,5
2017-12-16T19:24:19.291Z,6
2017-12-16T19:34:18.998Z,9
2017-12-16T19:44:19.157Z,8
2017-12-16T19:54:19.124Z,11
2017-12-16T20:04:19.081Z,10
2017-12-16T20:14:19.120Z,5
2017-12-16T20:24:19.665Z,9
2017-12-16T20:34:19.541Z,4
2017-12-16T20:44:20.024Z,7
2017-12-16T20:54:19.615Z,5
2017-12-16T21:04:19.406Z,9
2017-12-16T21:14:19.378Z,12
2017-12-16T21:24:19.296Z,9
2017-12-16T21:34:19.364Z,9
2017-12-16T21:44:19.756Z,12
2017-12-16T21:54:19.325Z,7
2017-12-16T22:04:19.211Z,9
2017-12-16T22:14:19.426Z,10
2017-12-16T22:24:19.396Z,11
2017-12-16T22:34:19.726Z,14
2017-12-16T22:44:20.102Z,13
2017-12-16T22:54:19.280Z,13
2017-12-16T23:04:19.484Z,15
2017-12-16T23:14:19.268Z,15
2017-12-16T23:24:19.322Z,12
2017-12-16T23:34:19.220Z,13
2017-12-16T23:44:19.350Z,10
2017-12-16T23:54:19.273Z,12
